Time;durP1;ratioP1;P1;durP2;ratioP2;P2;SDS_P1;SDS_P2;PMS_P1;PMS_P2;Temp;Humidity;BMP_temperature;BMP_pressure;BME280_temperature;BME280_humidity;BME280_pressure;Samples;Min_cycle;Max_cycle;Signal;HPM_P1;HPM_P2
2024/01/15 00:02:13;;;;;;;12.88;2.35;;;;;;;;;;4968310;28;20695;-66
2024/01/15 00:04:40;;;;;;;18.13;2.10;;;;;;;;;;4968433;28;20097;-66
2024/01/15 00:07:06;;;;;;;13.27;2.20;;;;;;;;;;4951001;28;20194;-66
2024/01/15 00:09:32;;;;;;;12.27;2.10;;;;;;;;;;4950811;28;20458;-66
2024/01/15 00:11:59;;;;;;;17.70;2.67;;;;;;;;;;4968345;28;20448;-66
2024/01/15 00:14:25;;;;;;;9.10;1.67;;;;;;;;;;4978055;28;20046;-66
2024/01/15 00:16:51;;;;;;;10.73;2.10;;;;;;;;;;4987561;28;20038;-66
2024/01/15 00:19:17;;;;;;;16.02;2.63;;;;;;;;;;4971085;28;20042;-66
2024/01/15 00:21:44;;;;;;;12.25;1.80;;;;;;;;;;4971347;28;20061;-66
2024/01/15 00:24:10;;;;;;;15.52;2.05;;;;;;;;;;4987248;28;20539;-66
2024/01/15 00:26:36;;;;;;;14.70;2.75;;;;;;;;;;4976147;28;20051;-66
2024/01/15 00:29:03;;;;;;;10.73;1.70;;;;;;;;;;4968464;28;20573;-66
2024/01/15 00:31:29;;;;;;;14.35;2.35;;;;;;;;;;4967833;28;20536;-66
2024/01/15 00:33:55;;;;;;;15.82;2.55;;;;;;;;;;4967806;28;20046;-66
2024/01/15 00:36:21;;;;;;;10.05;1.92;;;;;;;;;;4950678;28;20053;-66
2024/01/15 00:38:48;;;;;;;17.73;2.33;;;;;;;;;;4968209;28;20042;-66
2024/01/15 00:41:14;;;;;;;13.23;2.28;;;;;;;;;;4968508;28;20069;-66
2024/01/15 00:43:40;;;;;;;13.15;1.58;;;;;;;;;;4967728;28;20042;-66
2024/01/15 00:46:06;;;;;;;13.52;1.70;;;;;;;;;;4968252;28;20501;-66
2024/01/15 00:48:32;;;;;;;10.73;2.50;;;;;;;;;;4968269;28;20105;-66
2024/01/15 00:50:58;;;;;;;17.77;2.30;;;;;;;;;;4967890;28;20054;-66
2024/01/15 00:53:24;;;;;;;11.40;1.77;;;;;;;;;;4968164;28;20441;-66
2024/01/15 00:55:50;;;;;;;15.90;1.95;;;;;;;;;;4987879;28;20138;-66
2024/01/15 00:58:16;;;;;;;17.17;1.98;;;;;;;;;;4980066;28;20125;-66
2024/01/15 01:00:42;;;;;;;14.07;1.80;;;;;;;;;;4951030;28;20113;-66
2024/01/15 01:03:09;;;;;;;11.73;1.55;;;;;;;;;;4967400;28;20064;-66
2024/01/15 01:05:35;;;;;;;14.20;1.80;;;;;;;;;;4967961;28;20051;-66
2024/01/15 01:08:01;;;;;;;12.45;2.40;;;;;;;;;;4968552;28;20434;-66
2024/01/15 01:10:27;;;;;;;13.27;1.73;;;;;;;;;;4969082;28;20038;-66
2024/01/15 01:12:53;;;;;;;13.75;1.80;;;;;;;;;;4971175;28;20351;-66
2024/01/15 01:15:20;;;;;;;14.43;2.13;;;;;;;;;;4980394;28;20666;-66
2024/01/15 01:17:46;;;;;;;14.77;1.92;;;;;;;;;;4986593;28;20046;-66
2024/01/15 01:20:12;;;;;;;12.30;1.88;;;;;;;;;;4971652;28;20054;-66
2024/01/15 01:22:38;;;;;;;10.98;1.70;;;;;;;;;;4979457;28;20088;-66
2024/01/15 01:25:04;;;;;;;9.23;2.20;;;;;;;;;;4990732;28;20519;-66
2024/01/15 01:27:30;;;;;;;15.02;2.17;;;;;;;;;;4985516;28;20125;-66
2024/01/15 01:29:56;;;;;;;16.88;2.03;;;;;;;;;;4974070;28;20185;-66
2024/01/15 01:32:22;;;;;;;11.23;1.23;;;;;;;;;;4991185;28;20501;-66
2024/01/15 01:34:48;;;;;;;10.55;1.35;;;;;;;;;;4980867;28;20105;-66
2024/01/15 01:37:15;;;;;;;8.60;1.00;;;;;;;;;;4970704;28;20300;-66
2024/01/15 01:39:44;;;;;;;6.82;0.80;;;;;;;;;;4971293;28;20042;-66
2024/01/15 01:42:10;;;;;;;4.97;0.85;;;;;;;;;;4970946;28;20148;-66
2024/01/15 01:44:36;;;;;;;2.05;0.70;;;;;;;;;;4971320;28;20047;-66
2024/01/15 01:47:03;;;;;;;4.55;0.80;;;;;;;;;;4971126;28;20065;-66
2024/01/15 01:49:29;;;;;;;3.70;0.50;;;;;;;;;;4971222;28;20734;-66
2024/01/15 01:51:59;;;;;;;2.95;0.40;;;;;;;;;;4971088;28;20052;-66
2024/01/15 01:54:26;;;;;;;7.65;0.80;;;;;;;;;;4970210;28;20046;-66
2024/01/15 01:56:52;;;;;;;2.67;0.68;;;;;;;;;;4971227;28;20045;-66
2024/01/15 01:59:18;;;;;;;4.35;0.70;;;;;;;;;;4971173;28;20049;-66
2024/01/15 02:01:45;;;;;;;2.20;0.60;;;;;;;;;;4971059;28;20456;-66
2024/01/15 02:04:12;;;;;;;3.22;0.52;;;;;;;;;;4972221;28;20064;-66
2024/01/15 02:06:38;;;;;;;9.38;1.17;;;;;;;;;;4966138;28;20082;-66
2024/01/15 02:09:05;;;;;;;9.57;1.13;;;;;;;;;;4970758;28;20547;-66
2024/01/15 02:11:31;;;;;;;3.47;0.90;;;;;;;;;;4966905;28;20055;-66
2024/01/15 02:13:57;;;;;;;6.20;0.90;;;;;;;;;;4979854;28;20338;-66
2024/01/15 02:16:23;;;;;;;3.08;0.98;;;;;;;;;;4969679;28;20122;-66
2024/01/15 02:18:49;;;;;;;8.40;1.27;;;;;;;;;;4970419;28;20121;-66
2024/01/15 02:21:15;;;;;;;8.73;1.33;;;;;;;;;;4970639;28;20097;-66
2024/01/15 02:23:41;;;;;;;9.45;1.23;;;;;;;;;;4985114;28;20046;-66
2024/01/15 02:26:08;;;;;;;9.73;1.35;;;;;;;;;;4984849;28;20035;-66
2024/01/15 02:28:34;;;;;;;8.90;1.65;;;;;;;;;;4962225;28;20264;-66
2024/01/15 02:31:00;;;;;;;11.55;1.45;;;;;;;;;;4970327;28;20081;-66
2024/01/15 02:33:26;;;;;;;12.15;1.60;;;;;;;;;;4969730;28;20043;-66
2024/01/15 02:35:52;;;;;;;7.88;1.60;;;;;;;;;;4970421;28;20046;-66
2024/01/15 02:38:18;;;;;;;8.30;1.17;;;;;;;;;;4970220;28;20089;-66
2024/01/15 02:40:45;;;;;;;11.05;1.20;;;;;;;;;;4970389;28;20057;-66
2024/01/15 02:43:13;;;;;;;8.98;1.35;;;;;;;;;;4980971;28;20141;-66
2024/01/15 02:45:39;;;;;;;12.43;1.48;;;;;;;;;;4989432;28;20092;-66
2024/01/15 02:48:05;;;;;;;5.47;1.25;;;;;;;;;;4971807;28;20453;-66
2024/01/15 02:50:31;;;;;;;12.82;1.25;;;;;;;;;;4974584;28;20400;-66
2024/01/15 02:52:57;;;;;;;11.35;1.50;;;;;;;;;;4989845;28;20042;-66
2024/01/15 02:55:23;;;;;;;7.10;1.02;;;;;;;;;;4959767;28;20508;-66
2024/01/15 02:57:49;;;;;;;9.43;1.55;;;;;;;;;;4970358;28;20034;-66
2024/01/15 03:00:15;;;;;;;11.60;1.65;;;;;;;;;;4969935;28;20414;-66
2024/01/15 03:02:45;;;;;;;8.23;1.52;;;;;;;;;;4969354;28;20038;-66
2024/01/15 03:05:11;;;;;;;12.30;2.30;;;;;;;;;;4968553;28;20074;-66
2024/01/15 03:07:37;;;;;;;4.18;1.05;;;;;;;;;;4983211;28;20501;-66
2024/01/15 03:10:03;;;;;;;8.27;2.08;;;;;;;;;;4988568;28;20054;-66
2024/01/15 03:12:29;;;;;;;13.20;2.22;;;;;;;;;;4982345;28;20046;-66
2024/01/15 03:14:55;;;;;;;12.65;1.90;;;;;;;;;;4971200;28;20087;-66
2024/01/15 03:17:21;;;;;;;11.25;2.13;;;;;;;;;;4969604;28;20547;-66
2024/01/15 03:19:47;;;;;;;11.45;1.80;;;;;;;;;;4983770;28;20070;-66
2024/01/15 03:22:13;;;;;;;16.63;2.03;;;;;;;;;;4972680;28;20125;-66
2024/01/15 03:24:39;;;;;;;11.95;1.88;;;;;;;;;;4988501;28;20484;-66
2024/01/15 03:27:05;;;;;;;8.07;2.45;;;;;;;;;;4982069;28;20043;-66
2024/01/15 03:29:31;;;;;;;12.27;1.60;;;;;;;;;;4970689;28;20130;-66
2024/01/15 03:31:57;;;;;;;7.80;1.65;;;;;;;;;;4984631;28;20039;-66
2024/01/15 03:34:23;;;;;;;10.15;1.67;;;;;;;;;;4985230;28;21341;-66
2024/01/15 03:36:49;;;;;;;9.23;1.63;;;;;;;;;;4969518;28;20038;-66
2024/01/15 03:39:15;;;;;;;7.35;1.23;;;;;;;;;;4968685;28;20097;-66
2024/01/15 03:41:41;;;;;;;10.55;1.67;;;;;;;;;;4968366;28;20047;-66
2024/01/15 03:44:07;;;;;;;11.50;1.50;;;;;;;;;;4967745;28;20054;-66
2024/01/15 03:46:33;;;;;;;7.18;1.83;;;;;;;;;;4968795;28;20078;-66
2024/01/15 03:48:59;;;;;;;13.02;1.55;;;;;;;;;;4969507;28;20054;-66
2024/01/15 03:51:25;;;;;;;7.50;1.48;;;;;;;;;;4969091;28;20281;-66
2024/01/15 03:53:51;;;;;;;6.75;1.10;;;;;;;;;;4968899;28;20078;-66
2024/01/15 03:56:17;;;;;;;6.53;1.45;;;;;;;;;;4952188;28;20042;-66
2024/01/15 03:58:43;;;;;;;6.35;1.25;;;;;;;;;;4983617;28;20093;-66
2024/01/15 04:01:12;;;;;;;7.13;1.38;;;;;;;;;;4968852;28;20486;-66
2024/01/15 04:03:38;;;;;;;8.77;1.45;;;;;;;;;;4970895;28;20095;-66
2024/01/15 04:06:05;;;;;;;6.47;1.13;;;;;;;;;;4968167;28;20078;-66
2024/01/15 04:08:31;;;;;;;12.27;1.77;;;;;;;;;;4988128;28;20256;-66
2024/01/15 04:10:57;;;;;;;10.32;1.10;;;;;;;;;;4982102;28;20067;-66
2024/01/15 04:13:23;;;;;;;9.25;1.92;;;;;;;;;;4983549;28;20039;-66
2024/01/15 04:15:49;;;;;;;5.95;1.17;;;;;;;;;;4968286;28;20199;-66
2024/01/15 04:18:17;;;;;;;14.75;1.60;;;;;;;;;;4966817;28;20050;-66
2024/01/15 04:20:43;;;;;;;9.68;1.38;;;;;;;;;;4974968;28;20409;-66
2024/01/15 04:23:09;;;;;;;9.50;1.30;;;;;;;;;;4980274;28;20049;-66
2024/01/15 04:25:35;;;;;;;12.07;1.80;;;;;;;;;;4970919;28;20439;-66
2024/01/15 04:28:01;;;;;;;12.57;2.25;;;;;;;;;;4973392;28;20039;-66
2024/01/15 04:30:27;;;;;;;12.18;1.73;;;;;;;;;;4968520;28;20039;-66
2024/01/15 04:32:53;;;;;;;18.98;2.25;;;;;;;;;;4968646;28;20286;-66
2024/01/15 04:35:19;;;;;;;11.00;2.67;;;;;;;;;;4968074;28;20082;-66
2024/01/15 04:37:45;;;;;;;11.75;1.73;;;;;;;;;;4967605;28;20397;-66
2024/01/15 04:40:11;;;;;;;11.25;1.40;;;;;;;;;;4966747;28;20043;-66
2024/01/15 04:42:37;;;;;;;13.35;2.35;;;;;;;;;;4968335;28;20417;-66
2024/01/15 04:45:04;;;;;;;11.88;1.65;;;;;;;;;;4968089;28;20047;-66
2024/01/15 04:47:30;;;;;;;8.43;2.08;;;;;;;;;;4966114;28;20046;-66
2024/01/15 04:49:56;;;;;;;12.38;1.88;;;;;;;;;;4968147;28;20530;-66
2024/01/15 04:52:22;;;;;;;13.75;1.77;;;;;;;;;;4968241;28;20134;-66
2024/01/15 04:54:47;;;;;;;8.30;1.70;;;;;;;;;;4954254;28;20488;-66
2024/01/15 04:57:13;;;;;;;8.65;1.90;;;;;;;;;;4986983;28;20041;-66
2024/01/15 04:59:39;;;;;;;12.82;2.13;;;;;;;;;;4976738;28;20405;-66
2024/01/15 05:02:05;;;;;;;11.52;1.80;;;;;;;;;;4968200;28;20035;-66
2024/01/15 05:04:32;;;;;;;7.30;1.50;;;;;;;;;;4950417;28;20125;-66
2024/01/15 05:06:58;;;;;;;10.32;1.63;;;;;;;;;;4967180;28;20464;-66
2024/01/15 05:09:25;;;;;;;14.82;1.55;;;;;;;;;;4968000;28;20039;-66
2024/01/15 05:11:50;;;;;;;12.60;1.50;;;;;;;;;;4974844;28;20129;-66
2024/01/15 05:14:17;;;;;;;7.82;1.17;;;;;;;;;;4975257;28;20125;-66
2024/01/15 05:16:52;;;;;;;9.10;2.47;;;;;;;;;;4985513;28;20524;-66
2024/01/15 05:19:19;;;;;;;10.55;1.40;;;;;;;;;;4979976;28;20465;-66
2024/01/15 05:21:45;;;;;;;7.78;1.50;;;;;;;;;;4967887;28;20043;-66
2024/01/15 05:24:11;;;;;;;10.15;1.70;;;;;;;;;;4967915;28;20097;-66
2024/01/15 05:26:37;;;;;;;10.57;1.85;;;;;;;;;;4968075;28;20290;-66
2024/01/15 05:29:03;;;;;;;15.75;2.33;;;;;;;;;;4973259;28;20059;-66
2024/01/15 05:31:29;;;;;;;16.10;2.00;;;;;;;;;;4976517;28;20050;-66
2024/01/15 05:33:55;;;;;;;9.82;2.03;;;;;;;;;;4972570;28;20134;-66
2024/01/15 05:36:21;;;;;;;14.05;1.77;;;;;;;;;;4969386;28;20081;-66
2024/01/15 05:38:48;;;;;;;14.35;2.35;;;;;;;;;;4986240;28;20369;-66
2024/01/15 05:41:14;;;;;;;14.20;1.55;;;;;;;;;;4969842;28;20637;-66
2024/01/15 05:43:40;;;;;;;13.55;1.80;;;;;;;;;;4969937;28;20050;-66
2024/01/15 05:46:06;;;;;;;17.90;1.80;;;;;;;;;;4969351;28;20264;-66
2024/01/15 05:48:32;;;;;;;8.60;1.40;;;;;;;;;;4977553;28;20046;-66
2024/01/15 05:50:58;;;;;;;11.70;1.83;;;;;;;;;;4972004;28;20039;-66
2024/01/15 05:53:24;;;;;;;10.30;1.30;;;;;;;;;;4989120;28;20469;-66
2024/01/15 05:55:50;;;;;;;12.45;2.17;;;;;;;;;;4961431;28;20049;-66
2024/01/15 05:58:16;;;;;;;12.80;1.88;;;;;;;;;;4968381;28;20655;-66
2024/01/15 06:00:42;;;;;;;12.20;1.63;;;;;;;;;;4938373;28;20034;-66
2024/01/15 06:03:09;;;;;;;11.52;2.20;;;;;;;;;;4973531;28;20668;-66
2024/01/15 06:05:35;;;;;;;8.93;2.00;;;;;;;;;;4992749;28;20744;-66
2024/01/15 06:08:01;;;;;;;9.50;1.50;;;;;;;;;;4981683;28;20077;-66
2024/01/15 06:10:27;;;;;;;13.90;2.00;;;;;;;;;;4973134;28;20051;-66
2024/01/15 06:12:53;;;;;;;14.98;3.13;;;;;;;;;;4973023;28;20043;-66
2024/01/15 06:15:19;;;;;;;13.23;2.75;;;;;;;;;;4973073;28;20050;-66
2024/01/15 06:17:45;;;;;;;7.60;1.63;;;;;;;;;;4972720;28;20046;-66
2024/01/15 06:20:11;;;;;;;7.00;1.48;;;;;;;;;;4975203;28;20711;-66
2024/01/15 06:22:39;;;;;;;7.90;1.92;;;;;;;;;;4974962;28;20101;-66
2024/01/15 06:25:05;;;;;;;12.77;1.60;;;;;;;;;;4974071;28;20042;-66
2024/01/15 06:27:31;;;;;;;15.38;1.88;;;;;;;;;;4985215;28;20039;-66
2024/01/15 06:29:57;;;;;;;13.75;2.13;;;;;;;;;;4972762;28;20500;-66
2024/01/15 06:32:23;;;;;;;12.45;1.50;;;;;;;;;;4968208;28;20039;-66
2024/01/15 06:34:49;;;;;;;11.25;1.95;;;;;;;;;;4974664;28;20690;-66
2024/01/15 06:37:15;;;;;;;8.55;1.77;;;;;;;;;;4955166;28;20093;-66
2024/01/15 06:39:41;;;;;;;10.85;1.85;;;;;;;;;;4972552;28;20053;-66
2024/01/15 06:42:07;;;;;;;11.50;1.77;;;;;;;;;;4972890;28;20035;-66
2024/01/15 06:44:33;;;;;;;10.90;1.63;;;;;;;;;;4973028;28;20109;-66
2024/01/15 06:47:02;;;;;;;12.52;2.05;;;;;;;;;;4972503;28;20434;-66
2024/01/15 06:49:29;;;;;;;7.38;1.45;;;;;;;;;;4972376;28;20103;-66
2024/01/15 06:51:55;;;;;;;10.30;1.92;;;;;;;;;;4972507;28;20519;-66
2024/01/15 06:54:21;;;;;;;9.50;1.52;;;;;;;;;;4972559;28;20047;-66
2024/01/15 06:56:47;;;;;;;9.80;1.75;;;;;;;;;;4987821;28;20061;-66
2024/01/15 06:59:13;;;;;;;16.15;2.25;;;;;;;;;;4987514;28;20879;-66
2024/01/15 07:01:39;;;;;;;13.77;1.83;;;;;;;;;;4969201;28;20169;-66
2024/01/15 07:04:06;;;;;;;15.75;1.63;;;;;;;;;;4951692;28;20129;-66
2024/01/15 07:06:32;;;;;;;12.80;1.90;;;;;;;;;;4968786;28;20078;-66
2024/01/15 07:08:58;;;;;;;16.83;1.75;;;;;;;;;;4968049;28;20043;-66
2024/01/15 07:11:24;;;;;;;12.10;2.10;;;;;;;;;;4968851;28;20043;-66
2024/01/15 07:13:50;;;;;;;15.80;1.88;;;;;;;;;;4962454;28;20077;-66
2024/01/15 07:16:16;;;;;;;10.80;1.50;;;;;;;;;;4968479;28;20572;-66
2024/01/15 07:18:42;;;;;;;10.63;1.70;;;;;;;;;;4968187;28;20038;-66
2024/01/15 07:21:08;;;;;;;16.00;1.88;;;;;;;;;;4976770;28;20335;-66
2024/01/15 07:23:34;;;;;;;14.05;2.08;;;;;;;;;;4974152;28;20153;-66
2024/01/15 07:26:00;;;;;;;17.20;1.60;;;;;;;;;;4981348;28;20725;-66
2024/01/15 07:28:26;;;;;;;14.68;1.60;;;;;;;;;;4971031;28;20082;-65
2024/01/15 07:30:52;;;;;;;14.05;1.88;;;;;;;;;;4956036;28;20101;-65
2024/01/15 07:33:18;;;;;;;14.45;2.00;;;;;;;;;;4970362;28;20744;-65
2024/01/15 07:35:44;;;;;;;13.70;2.35;;;;;;;;;;4971701;28;20081;-65
2024/01/15 07:38:11;;;;;;;13.63;1.88;;;;;;;;;;4965806;28;20133;-64
2024/01/15 07:40:37;;;;;;;14.10;2.38;;;;;;;;;;4968729;28;20405;-65
2024/01/15 07:43:03;;;;;;;8.43;2.00;;;;;;;;;;4969266;28;20509;-65
2024/01/15 07:45:31;;;;;;;18.88;2.03;;;;;;;;;;4968813;28;20078;-65
2024/01/15 07:47:57;;;;;;;17.25;3.05;;;;;;;;;;4957650;28;20057;-65
2024/01/15 07:50:23;;;;;;;17.08;2.65;;;;;;;;;;4969491;28;20406;-65
2024/01/15 07:52:49;;;;;;;12.75;1.98;;;;;;;;;;4970260;28;20720;-65
2024/01/15 07:55:15;;;;;;;14.40;2.28;;;;;;;;;;4970358;28;20270;-65
2024/01/15 07:57:41;;;;;;;15.18;1.98;;;;;;;;;;4970176;28;20529;-65
2024/01/15 08:00:08;;;;;;;15.10;2.08;;;;;;;;;;4970258;28;20541;-67
2024/01/15 08:02:35;;;;;;;11.73;2.05;;;;;;;;;;4970411;28;20142;-66
2024/01/15 08:05:01;;;;;;;13.23;2.00;;;;;;;;;;4970851;28;20043;-66
2024/01/15 08:07:27;;;;;;;21.15;2.85;;;;;;;;;;4970024;28;20374;-66
2024/01/15 08:09:53;;;;;;;11.35;2.55;;;;;;;;;;4969722;28;20051;-66
2024/01/15 08:12:19;;;;;;;15.02;2.47;;;;;;;;;;4982028;28;20149;-65
2024/01/15 08:14:45;;;;;;;15.68;4.25;;;;;;;;;;4969470;28;20134;-65
2024/01/15 08:17:11;;;;;;;11.70;2.70;;;;;;;;;;4968821;28;20061;-66
2024/01/15 08:19:40;;;;;;;14.13;2.90;;;;;;;;;;4968033;28;20734;-67
2024/01/15 08:22:06;;;;;;;12.40;1.77;;;;;;;;;;4969424;28;20456;-66
2024/01/15 08:24:33;;;;;;;12.98;2.42;;;;;;;;;;4966231;28;20046;-65
2024/01/15 08:26:58;;;;;;;16.58;2.15;;;;;;;;;;4965419;28;20070;-67
2024/01/15 08:29:25;;;;;;;14.98;2.30;;;;;;;;;;4968344;28;20070;-67
2024/01/15 08:31:51;;;;;;;13.82;2.45;;;;;;;;;;4969580;28;20528;-67
2024/01/15 08:34:17;;;;;;;14.05;2.40;;;;;;;;;;4968348;28;20046;-66
2024/01/15 08:36:43;;;;;;;12.32;1.90;;;;;;;;;;4957893;28;20038;-66
2024/01/15 08:39:09;;;;;;;10.02;2.08;;;;;;;;;;4965810;28;20043;-65
2024/01/15 08:41:35;;;;;;;13.75;1.70;;;;;;;;;;4965328;28;20133;-66
2024/01/15 08:44:02;;;;;;;22.83;2.25;;;;;;;;;;4966210;28;20043;-65
2024/01/15 08:46:28;;;;;;;15.05;1.98;;;;;;;;;;4969130;28;20043;-66
2024/01/15 08:48:54;;;;;;;13.85;2.72;;;;;;;;;;4970333;28;20050;-66
2024/01/15 08:51:20;;;;;;;10.65;2.28;;;;;;;;;;4963079;28;20043;-66
2024/01/15 08:53:46;;;;;;;16.63;3.22;;;;;;;;;;4972190;28;20645;-66
2024/01/15 08:56:12;;;;;;;14.93;2.22;;;;;;;;;;4967604;28;20041;-66
2024/01/15 08:58:38;;;;;;;19.77;2.70;;;;;;;;;;4968666;28;20048;-67
2024/01/15 09:01:05;;;;;;;13.73;2.55;;;;;;;;;;4967727;28;20035;-66
2024/01/15 09:03:32;;;;;;;9.50;1.98;;;;;;;;;;4971051;28;20058;-66
2024/01/15 09:05:58;;;;;;;13.93;2.28;;;;;;;;;;4966516;28;20062;-66
2024/01/15 09:08:24;;;;;;;13.85;2.75;;;;;;;;;;4967079;28;20453;-67
2024/01/15 09:10:50;;;;;;;12.05;2.70;;;;;;;;;;4967086;28;20045;-67
2024/01/15 09:13:16;;;;;;;13.85;2.08;;;;;;;;;;4972142;28;20051;-66
2024/01/15 09:15:43;;;;;;;12.52;1.90;;;;;;;;;;4968513;28;20065;-66
2024/01/15 09:18:09;;;;;;;11.27;1.98;;;;;;;;;;4968150;28;20413;-67
2024/01/15 09:20:35;;;;;;;14.05;2.70;;;;;;;;;;4971364;28;20036;-66
2024/01/15 09:23:02;;;;;;;10.45;2.05;;;;;;;;;;4974906;28;20134;-66
2024/01/15 09:25:28;;;;;;;9.70;1.55;;;;;;;;;;4969853;28;20681;-66
2024/01/15 09:27:55;;;;;;;13.50;1.98;;;;;;;;;;4967382;28;20743;-67
2024/01/15 09:30:21;;;;;;;8.40;1.95;;;;;;;;;;4966660;28;20485;-66
2024/01/15 09:32:47;;;;;;;7.20;1.70;;;;;;;;;;4967072;28;20047;-66
2024/01/15 09:35:13;;;;;;;13.38;2.58;;;;;;;;;;4969888;28;20042;-66
2024/01/15 09:37:40;;;;;;;6.80;1.63;;;;;;;;;;4967445;28;20180;-66
2024/01/15 09:40:06;;;;;;;10.18;1.58;;;;;;;;;;4969098;28;20457;-66
2024/01/15 09:42:33;;;;;;;9.57;1.77;;;;;;;;;;4970369;28;20066;-66
2024/01/15 09:44:59;;;;;;;12.05;1.70;;;;;;;;;;4967462;28;20046;-66
2024/01/15 09:47:25;;;;;;;14.48;1.67;;;;;;;;;;4974631;28;20492;-66
2024/01/15 09:49:51;;;;;;;9.75;1.63;;;;;;;;;;4969750;28;20034;-65
2024/01/15 09:52:19;;;;;;;11.13;2.08;;;;;;;;;;4973843;28;20472;-66
2024/01/15 09:54:47;;;;;;;14.00;2.42;;;;;;;;;;4971556;28;20046;-66
2024/01/15 09:57:13;;;;;;;10.50;2.20;;;;;;;;;;4971375;28;20074;-67
2024/01/15 09:59:40;;;;;;;11.02;1.63;;;;;;;;;;4970808;28;20538;-67
2024/01/15 10:02:06;;;;;;;13.30;1.75;;;;;;;;;;4970395;28;20373;-66
2024/01/15 10:04:32;;;;;;;10.57;2.10;;;;;;;;;;4973513;28;20058;-68
2024/01/15 10:07:01;;;;;;;9.55;1.58;;;;;;;;;;4972141;28;20501;-65
2024/01/15 10:09:27;;;;;;;9.73;1.80;;;;;;;;;;4971127;28;20042;-65
2024/01/15 10:11:53;;;;;;;9.68;2.17;;;;;;;;;;4971308;28;20085;-66
2024/01/15 10:14:20;;;;;;;5.95;1.45;;;;;;;;;;4970403;28;20039;-66
2024/01/15 10:16:46;;;;;;;12.75;1.92;;;;;;;;;;4973233;28;20062;-69
2024/01/15 10:19:12;;;;;;;10.48;1.70;;;;;;;;;;4960863;28;20397;-68
2024/01/15 10:21:38;;;;;;;8.73;1.63;;;;;;;;;;4963703;28;20046;-68
2024/01/15 10:24:05;;;;;;;9.43;1.60;;;;;;;;;;4972998;28;20149;-68
2024/01/15 10:26:31;;;;;;;6.72;1.23;;;;;;;;;;4955931;28;20137;-67
2024/01/15 10:28:59;;;;;;;12.48;1.38;;;;;;;;;;4967400;28;20054;-67
2024/01/15 10:31:25;;;;;;;7.47;1.48;;;;;;;;;;4962994;28;20130;-66
2024/01/15 10:33:52;;;;;;;6.30;1.27;;;;;;;;;;4978615;28;20077;-65
2024/01/15 10:36:18;;;;;;;5.10;0.80;;;;;;;;;;4969656;28;20090;-66
2024/01/15 10:38:44;;;;;;;9.70;1.40;;;;;;;;;;4970797;28;20163;-67
2024/01/15 10:41:11;;;;;;;8.45;1.20;;;;;;;;;;4969916;28;20130;-67
2024/01/15 10:43:37;;;;;;;10.63;1.73;;;;;;;;;;4968837;28;20035;-65
2024/01/15 10:46:03;;;;;;;8.63;1.52;;;;;;;;;;4952416;28;20041;-65
2024/01/15 10:48:30;;;;;;;7.50;1.25;;;;;;;;;;4973496;28;20093;-65
2024/01/15 10:50:57;;;;;;;9.30;1.35;;;;;;;;;;4967537;28;20049;-65
2024/01/15 10:53:23;;;;;;;9.93;1.35;;;;;;;;;;4968413;28;20096;-67
2024/01/15 10:55:51;;;;;;;9.00;1.33;;;;;;;;;;4953357;28;20082;-67
2024/01/15 10:58:17;;;;;;;5.68;0.95;;;;;;;;;;4952902;28;20047;-67
2024/01/15 11:00:43;;;;;;;10.68;1.52;;;;;;;;;;4954394;28;20137;-66
2024/01/15 11:03:10;;;;;;;6.78;1.83;;;;;;;;;;4968246;28;20104;-65
2024/01/15 11:05:39;;;;;;;8.73;1.20;;;;;;;;;;4969913;28;20731;-65
2024/01/15 11:08:09;;;;;;;3.22;0.70;;;;;;;;;;4970134;28;20035;-65
2024/01/15 11:10:40;;;;;;;3.97;0.63;;;;;;;;;;4969090;28;20046;-66
2024/01/15 11:13:06;;;;;;;4.43;0.70;;;;;;;;;;4974896;28;20138;-66
2024/01/15 11:15:55;;;;;;;1.55;0.40;;;;;;;;;;4972480;28;20584;-66
2024/01/15 11:18:22;;;;;;;6.00;0.68;;;;;;;;;;4969158;28;20043;-65
2024/01/15 11:21:07;;;;;;;2.08;0.68;;;;;;;;;;4968792;28;20034;-67
2024/01/15 11:23:49;;;;;;;3.40;0.52;;;;;;;;;;4968194;28;20079;-65
2024/01/15 11:26:27;;;;;;;3.72;0.60;;;;;;;;;;4960048;28;20065;-66
2024/01/15 11:28:54;;;;;;;5.93;1.55;;;;;;;;;;4965331;28;20045;-67
2024/01/15 11:31:20;;;;;;;4.38;1.88;;;;;;;;;;4967399;28;20405;-67
2024/01/15 11:33:50;;;;;;;4.10;1.25;;;;;;;;;;4971236;28;20050;-67
2024/01/15 11:36:16;;;;;;;4.65;1.17;;;;;;;;;;4959089;28;20737;-66
2024/01/15 11:38:42;;;;;;;6.22;1.15;;;;;;;;;;4968561;28;20039;-66
2024/01/15 11:41:15;;;;;;;2.65;0.70;;;;;;;;;;4968510;28;20035;-65
2024/01/15 11:43:42;;;;;;;4.80;1.17;;;;;;;;;;4968559;28;20042;-65
2024/01/15 11:46:15;;;;;;;4.45;0.60;;;;;;;;;;4970052;28;20039;-64
2024/01/15 11:48:47;;;;;;;3.35;0.50;;;;;;;;;;4967267;28;20520;-66
2024/01/15 11:51:13;;;;;;;;;;;;;;;;;;4959866;28;20118;-64
2024/01/15 11:53:42;;;;;;;6.43;0.95;;;;;;;;;;4965443;28;20044;-66
2024/01/15 11:56:12;;;;;;;7.15;1.48;;;;;;;;;;4967016;28;20031;-66
2024/01/15 11:58:38;;;;;;;6.20;1.75;;;;;;;;;;4968031;28;20035;-66
2024/01/15 12:01:04;;;;;;;6.50;1.85;;;;;;;;;;4966506;28;20097;-66
2024/01/15 12:03:34;;;;;;;12.77;3.08;;;;;;;;;;4963985;28;20054;-67
2024/01/15 12:06:00;;;;;;;4.63;1.10;;;;;;;;;;4966647;28;20043;-66
2024/01/15 12:08:27;;;;;;;6.65;1.02;;;;;;;;;;4966508;28;20490;-66
2024/01/15 12:10:53;;;;;;;8.18;1.20;;;;;;;;;;4967300;28;20043;-65
2024/01/15 12:13:19;;;;;;;2.33;0.73;;;;;;;;;;4966234;28;20122;-65
2024/01/15 12:15:46;;;;;;;0.88;0.57;;;;;;;;;;4972142;28;20085;-67
2024/01/15 12:18:14;;;;;;;1.52;0.40;;;;;;;;;;4982685;28;20042;-65
2024/01/15 12:20:40;;;;;;;1.77;0.50;;;;;;;;;;4951922;28;20159;-66
2024/01/15 12:23:06;;;;;;;1.63;0.70;;;;;;;;;;4961904;28;20045;-67
2024/01/15 12:25:33;;;;;;;3.92;0.80;;;;;;;;;;4970582;28;20061;-67
2024/01/15 12:28:00;;;;;;;4.30;0.70;;;;;;;;;;4968319;28;20043;-65
2024/01/15 12:30:31;;;;;;;5.25;0.65;;;;;;;;;;4964999;28;20061;-66
2024/01/15 12:32:57;;;;;;;2.72;0.80;;;;;;;;;;4967096;28;20515;-66
2024/01/15 12:35:28;;;;;;;2.95;0.57;;;;;;;;;;4979258;28;20066;-66
2024/01/15 12:37:55;;;;;;;5.78;0.93;;;;;;;;;;4974782;28;20719;-66
2024/01/15 12:40:22;;;;;;;9.00;1.17;;;;;;;;;;4966782;28;20053;-67
2024/01/15 12:42:48;;;;;;;4.82;0.57;;;;;;;;;;4971067;28;20039;-67
2024/01/15 12:45:15;;;;;;;5.85;1.27;;;;;;;;;;4968187;28;20046;-67
2024/01/15 12:47:41;;;;;;;3.95;0.80;;;;;;;;;;4963074;28;20104;-67
2024/01/15 12:50:11;;;;;;;5.35;1.08;;;;;;;;;;4959744;28;20043;-67
2024/01/15 12:52:37;;;;;;;8.68;1.10;;;;;;;;;;4970665;28;20073;-69
2024/01/15 12:55:07;;;;;;;6.82;1.00;;;;;;;;;;4961134;28;20154;-67
2024/01/15 12:57:34;;;;;;;4.93;1.20;;;;;;;;;;4968753;28;20082;-67
2024/01/15 13:00:00;;;;;;;7.22;1.60;;;;;;;;;;4968979;28;20627;-66
2024/01/15 13:02:27;;;;;;;4.22;0.80;;;;;;;;;;4966277;28;20663;-65
2024/01/15 13:04:54;;;;;;;7.65;1.45;;;;;;;;;;4967813;28;20105;-66
2024/01/15 13:07:20;;;;;;;3.58;0.80;;;;;;;;;;4968973;28;20066;-65
2024/01/15 13:09:45;;;;;;;6.47;1.20;;;;;;;;;;4967976;28;20109;-65
2024/01/15 13:12:11;;;;;;;6.25;1.60;;;;;;;;;;4972035;28;20070;-68
2024/01/15 13:14:38;;;;;;;5.68;1.75;;;;;;;;;;4958610;28;20367;-66
2024/01/15 13:17:04;;;;;;;8.90;1.50;;;;;;;;;;4971638;28;20042;-66
2024/01/15 13:19:30;;;;;;;9.88;1.10;;;;;;;;;;4972226;28;20045;-66
2024/01/15 13:21:58;;;;;;;4.68;1.02;;;;;;;;;;4974595;28;20626;-66
2024/01/15 13:24:24;;;;;;;7.80;1.20;;;;;;;;;;4970501;28;20078;-66
2024/01/15 13:26:50;;;;;;;7.13;1.10;;;;;;;;;;4971605;28;20097;-67
2024/01/15 13:29:16;;;;;;;10.05;1.08;;;;;;;;;;4963881;28;20048;-65
2024/01/15 13:31:42;;;;;;;5.63;1.17;;;;;;;;;;4974018;28;20378;-66
2024/01/15 13:34:09;;;;;;;7.30;1.40;;;;;;;;;;4971814;28;20050;-67
2024/01/15 13:36:35;;;;;;;7.68;1.00;;;;;;;;;;4971620;28;20105;-66
2024/01/15 13:39:01;;;;;;;9.88;1.45;;;;;;;;;;4971540;28;20126;-65
2024/01/15 13:41:27;;;;;;;10.50;1.30;;;;;;;;;;4958822;28;20146;-67
2024/01/15 13:43:56;;;;;;;5.22;1.20;;;;;;;;;;4979177;28;20042;-67
2024/01/15 13:46:26;;;;;;;6.07;1.33;;;;;;;;;;4976498;28;20112;-67
2024/01/15 13:48:53;;;;;;;12.32;1.58;;;;;;;;;;4965062;28;20081;-67
2024/01/15 13:51:19;;;;;;;6.78;1.20;;;;;;;;;;4968827;28;20493;-67
2024/01/15 13:53:45;;;;;;;7.72;1.40;;;;;;;;;;4959968;28;20042;-67
2024/01/15 13:56:11;;;;;;;7.97;1.55;;;;;;;;;;4972425;28;20382;-66
2024/01/15 13:58:37;;;;;;;4.07;0.73;;;;;;;;;;4971655;28;20069;-65
2024/01/15 14:01:06;;;;;;;9.73;1.23;;;;;;;;;;4970177;28;20066;-65
2024/01/15 14:03:32;;;;;;;12.90;1.58;;;;;;;;;;4970854;28;21186;-65
2024/01/15 14:05:58;;;;;;;6.00;1.13;;;;;;;;;;4975067;28;20046;-66
2024/01/15 14:08:25;;;;;;;8.93;1.40;;;;;;;;;;4971255;28;20046;-66
2024/01/15 14:10:51;;;;;;;6.32;1.25;;;;;;;;;;4970913;28;20154;-66
2024/01/15 14:13:18;;;;;;;6.35;1.20;;;;;;;;;;4969275;28;20133;-66
2024/01/15 14:15:45;;;;;;;9.95;1.60;;;;;;;;;;4969351;28;20489;-65
2024/01/15 14:18:11;;;;;;;6.80;1.77;;;;;;;;;;4970223;28;20038;-66
2024/01/15 14:20:37;;;;;;;8.18;1.38;;;;;;;;;;4971448;28;20134;-65
2024/01/15 14:23:03;;;;;;;11.23;1.38;;;;;;;;;;4972835;28;20038;-66
2024/01/15 14:25:29;;;;;;;10.20;2.03;;;;;;;;;;4968788;28;20050;-66
2024/01/15 14:27:55;;;;;;;8.80;1.40;;;;;;;;;;4969655;28;20064;-66
2024/01/15 14:30:21;;;;;;;12.73;1.67;;;;;;;;;;4969355;28;20050;-67
2024/01/15 14:32:47;;;;;;;10.25;1.48;;;;;;;;;;4963425;28;20049;-67